createdAt,value
2022-08-17T00:00:05.665Z,20.84
2022-08-17T00:02:32.709Z,20.87
2022-08-17T00:05:05.677Z,20.88
2022-08-17T00:07:32.601Z,20.85
2022-08-17T00:09:59.641Z,20.80
2022-08-17T00:12:43.155Z,20.77
2022-08-17T00:15:14.366Z,20.75
2022-08-17T00:17:44.535Z,20.71
2022-08-17T00:20:13.323Z,20.67
2022-08-17T00:22:41.914Z,20.66
2022-08-17T00:25:14.993Z,20.67
2022-08-17T00:27:42.166Z,20.69
2022-08-17T00:30:12.025Z,20.64
2022-08-17T00:33:15.013Z,20.64
2022-08-17T00:35:30.932Z,20.67
2022-08-17T00:37:57.840Z,20.61
2022-08-17T00:40:24.955Z,20.62
2022-08-17T00:42:53.279Z,20.61
2022-08-17T00:45:21.020Z,20.61
2022-08-17T00:47:49.396Z,20.56
2022-08-17T00:50:19.609Z,20.68
2022-08-17T00:52:55.273Z,20.63
2022-08-17T00:55:24.788Z,20.66
2022-08-17T00:57:57.727Z,20.66
2022-08-17T01:00:30.381Z,20.70
2022-08-17T01:03:13.884Z,20.73
2022-08-17T01:05:42.587Z,20.73
2022-08-17T01:08:13.362Z,20.72
2022-08-17T01:10:59.735Z,20.74
2022-08-17T01:13:40.835Z,20.73
2022-08-17T01:16:26.190Z,20.71
2022-08-17T01:18:59.957Z,20.71
2022-08-17T01:21:47.537Z,20.68
2022-08-17T01:24:15.247Z,20.66
2022-08-17T01:26:43.492Z,20.69
2022-08-17T01:29:11.497Z,20.69
2022-08-17T01:31:45.817Z,20.72
2022-08-17T01:34:16.262Z,20.72
2022-08-17T01:36:48.062Z,20.78
2022-08-17T01:39:31.822Z,20.78
2022-08-17T01:42:21.762Z,20.76
2022-08-17T01:44:49.345Z,20.76
2022-08-17T01:47:16.265Z,20.82
2022-08-17T01:49:44.569Z,20.82
2022-08-17T01:52:13.083Z,20.80
2022-08-17T01:54:45.480Z,20.78
2022-08-17T01:57:12.906Z,20.77
2022-08-17T01:59:40.044Z,20.75
2022-08-17T02:02:07.768Z,20.74
2022-08-17T02:04:34.866Z,20.74
2022-08-17T02:07:02.064Z,20.81
2022-08-17T02:09:30.286Z,20.86
2022-08-17T02:11:59.805Z,20.88
2022-08-17T02:14:46.733Z,20.80
2022-08-17T02:17:13.899Z,20.85
2022-08-17T02:19:41.179Z,20.80
2022-08-17T02:22:08.218Z,20.77
2022-08-17T02:25:00.889Z,20.70
2022-08-17T02:27:25.019Z,20.54
2022-08-17T02:29:52.174Z,20.59
2022-08-17T02:32:27.970Z,20.44
2022-08-17T02:34:57.888Z,20.42
2022-08-17T02:37:26.587Z,20.31
2022-08-17T02:39:54.010Z,20.33
2022-08-17T02:42:29.469Z,20.25
2022-08-17T02:44:56.419Z,20.32
2022-08-17T02:47:24.484Z,20.21
2022-08-17T02:49:55.891Z,20.31
2022-08-17T02:52:42.893Z,20.12
2022-08-17T02:55:26.729Z,20.13
2022-08-17T02:57:54.503Z,20.21
2022-08-17T03:00:35.475Z,20.12
2022-08-17T03:03:05.285Z,20.21
2022-08-17T03:05:36.037Z,20.25
2022-08-17T03:08:04.695Z,20.22
2022-08-17T03:10:31.720Z,20.17
2022-08-17T03:12:59.637Z,20.16
2022-08-17T03:15:31.388Z,20.28
2022-08-17T03:18:00.217Z,20.32
2022-08-17T03:20:30.055Z,20.32
2022-08-17T03:23:02.935Z,20.33
2022-08-17T03:25:37.706Z,20.40
2022-08-17T03:28:07.051Z,20.35
2022-08-17T03:30:34.756Z,20.42
2022-08-17T03:33:05.374Z,20.41
2022-08-17T03:35:34.771Z,20.42
2022-08-17T03:38:01.756Z,20.40
2022-08-17T03:40:36.978Z,20.45
2022-08-17T03:43:18.754Z,20.41
2022-08-17T03:46:04.503Z,20.36
2022-08-17T03:48:51.517Z,20.40
2022-08-17T03:51:43.816Z,20.39
2022-08-17T03:54:31.205Z,20.40
2022-08-17T03:57:09.641Z,20.28
2022-08-17T03:59:38.065Z,20.20
2022-08-17T04:02:11.744Z,20.19
2022-08-17T04:04:39.519Z,20.22
2022-08-17T04:07:07.329Z,20.12
2022-08-17T04:09:34.906Z,20.19
2022-08-17T04:12:02.556Z,20.10
2022-08-17T04:14:36.276Z,20.15
2022-08-17T04:17:21.130Z,20.13
2022-08-17T04:19:48.074Z,20.11
2022-08-17T04:22:32.737Z,20.01
2022-08-17T04:25:09.498Z,20.07
2022-08-17T04:27:37.092Z,20.04
2022-08-17T04:30:07.186Z,20.06
2022-08-17T04:33:07.311Z,20.00
2022-08-17T04:35:42.121Z,19.98
2022-08-17T04:38:13.507Z,19.91
2022-08-17T04:40:59.443Z,19.92
2022-08-17T04:43:28.692Z,19.94
2022-08-17T04:46:03.042Z,19.98
2022-08-17T04:48:36.328Z,19.94
2022-08-17T04:51:13.188Z,19.86
2022-08-17T04:53:47.605Z,19.93
2022-08-17T04:56:22.168Z,19.94
2022-08-17T04:58:51.749Z,19.99
2022-08-17T05:01:24.025Z,20.00
2022-08-17T05:03:56.775Z,19.96
2022-08-17T05:06:24.431Z,20.00
2022-08-17T05:08:51.846Z,20.07
2022-08-17T05:11:18.886Z,20.02
2022-08-17T05:13:45.991Z,20.02
2022-08-17T05:16:13.245Z,20.03
2022-08-17T05:18:40.228Z,19.95
2022-08-17T05:21:07.491Z,19.88
2022-08-17T05:23:41.808Z,19.91
2022-08-17T05:26:23.135Z,19.91
2022-08-17T05:29:00.375Z,19.89
2022-08-17T05:31:30.723Z,19.93
2022-08-17T05:33:57.955Z,19.99
2022-08-17T05:36:41.902Z,19.98
2022-08-17T05:39:15.882Z,20.00
2022-08-17T05:41:46.925Z,19.97
2022-08-17T05:44:14.111Z,19.93
2022-08-17T05:46:45.776Z,19.98
2022-08-17T05:49:15.535Z,19.93
2022-08-17T05:52:21.025Z,19.79
2022-08-17T05:55:41.592Z,19.80
2022-08-17T05:58:18.505Z,19.77
2022-08-17T06:01:18.720Z,19.73
2022-08-17T06:04:06.462Z,19.73
2022-08-17T06:06:52.426Z,19.72
2022-08-17T06:09:40.100Z,19.77
2022-08-17T06:12:47.231Z,19.71
2022-08-17T06:15:53.657Z,19.80
2022-08-17T06:18:23.720Z,19.82
2022-08-17T06:20:56.688Z,19.89
2022-08-17T06:23:41.749Z,19.97
2022-08-17T06:26:20.529Z,19.98
2022-08-17T06:29:22.297Z,20.00
2022-08-17T06:31:50.902Z,20.07
2022-08-17T06:34:19.344Z,20.05
2022-08-17T06:37:31.396Z,20.17
2022-08-17T06:40:34.617Z,20.32
2022-08-17T06:43:26.106Z,20.41
2022-08-17T06:46:07.731Z,20.46
2022-08-17T06:48:48.927Z,20.54
2022-08-17T06:51:35.716Z,20.60
2022-08-17T06:54:24.508Z,20.56
2022-08-17T06:57:22.588Z,20.61
2022-08-17T07:00:12.976Z,20.65
2022-08-17T07:02:51.950Z,20.62
2022-08-17T07:05:26.016Z,20.66
2022-08-17T07:08:35.183Z,20.67
2022-08-17T07:11:15.794Z,20.69
2022-08-17T07:14:17.201Z,20.61
2022-08-17T07:16:52.829Z,20.76
2022-08-17T07:19:24.261Z,20.78
2022-08-17T07:22:21.986Z,20.79
2022-08-17T07:24:58.197Z,20.84
2022-08-17T07:27:33.218Z,20.79
2022-08-17T07:30:23.324Z,20.85
2022-08-17T07:32:57.729Z,20.80
2022-08-17T07:35:31.376Z,20.80
2022-08-17T07:38:27.600Z,20.73
2022-08-17T07:41:04.742Z,20.70
2022-08-17T07:43:40.364Z,20.64
2022-08-17T07:46:36.680Z,20.52
2022-08-17T07:49:03.583Z,20.43
2022-08-17T07:51:45.442Z,20.34
2022-08-17T07:54:22.705Z,20.17
2022-08-17T07:56:52.435Z,20.12
2022-08-17T07:59:35.085Z,20.07
2022-08-17T08:02:25.766Z,19.96
2022-08-17T08:05:30.833Z,19.98
2022-08-17T08:08:26.651Z,20.03
2022-08-17T08:11:03.650Z,20.02
2022-08-17T08:13:32.315Z,20.07
2022-08-17T08:16:19.757Z,20.10
2022-08-17T08:18:54.664Z,20.10
2022-08-17T08:21:36.861Z,20.23
2022-08-17T08:24:19.471Z,20.14
2022-08-17T08:27:23.374Z,20.06
2022-08-17T08:30:06.825Z,20.04
2022-08-17T08:33:10.949Z,20.00
2022-08-17T08:35:47.116Z,20.05
2022-08-17T08:38:35.495Z,20.09
2022-08-17T08:41:52.401Z,20.16
2022-08-17T08:44:59.899Z,20.27
2022-08-17T08:47:45.947Z,20.30
2022-08-17T08:50:38.730Z,20.29
2022-08-17T08:53:18.944Z,20.34
2022-08-17T08:55:54.378Z,20.33
2022-08-17T08:59:10.036Z,20.34
2022-08-17T09:02:00.306Z,20.21
2022-08-17T09:05:10.679Z,20.20
2022-08-17T09:07:54.749Z,20.24
2022-08-17T09:10:46.272Z,20.14
2022-08-17T09:13:40.020Z,20.07
2022-08-17T09:16:16.823Z,20.11
2022-08-17T09:19:00.480Z,20.09
2022-08-17T09:21:53.028Z,20.15
2022-08-17T09:24:44.628Z,20.13
2022-08-17T09:27:28.123Z,20.17
2022-08-17T09:30:10.169Z,20.19
2022-08-17T09:32:44.208Z,20.16
2022-08-17T09:35:24.966Z,20.19
2022-08-17T09:38:20.394Z,20.09
2022-08-17T09:41:15.690Z,20.11
2022-08-17T09:44:08.570Z,19.89
2022-08-17T09:47:45.315Z,19.56
2022-08-17T09:51:05.378Z,19.32
2022-08-17T09:53:36.563Z,19.27
2022-08-17T09:56:46.181Z,19.11
2022-08-17T09:59:40.186Z,19.20
2022-08-17T10:02:54.281Z,19.31
2022-08-17T10:05:46.185Z,19.52
2022-08-17T10:09:08.299Z,19.73
2022-08-17T10:12:17.416Z,19.89
2022-08-17T10:15:42.473Z,20.06
2022-08-17T10:18:56.472Z,20.24
2022-08-17T10:21:44.353Z,20.40
2022-08-17T10:25:22.115Z,20.36
2022-08-17T10:27:52.474Z,20.51
2022-08-17T10:30:27.777Z,20.50
2022-08-17T10:33:06.593Z,20.59
2022-08-17T10:36:10.638Z,20.54
2022-08-17T10:38:56.781Z,20.55
2022-08-17T10:41:40.778Z,20.63
2022-08-17T10:44:38.759Z,20.62
2022-08-17T10:47:16.213Z,20.72
2022-08-17T10:49:54.044Z,20.75
2022-08-17T10:52:25.801Z,20.84
2022-08-17T10:54:54.877Z,20.81
2022-08-17T10:57:41.878Z,20.92
2022-08-17T11:00:27.887Z,20.88
2022-08-17T11:02:57.320Z,20.88
2022-08-17T11:06:09.425Z,20.95
2022-08-17T11:09:31.204Z,20.90
2022-08-17T11:12:17.420Z,20.95
2022-08-17T11:14:57.760Z,20.91
2022-08-17T11:17:49.567Z,21.03
2022-08-17T11:20:35.677Z,20.97
2022-08-17T11:23:48.986Z,20.90
2022-08-17T11:26:27.164Z,20.89
2022-08-17T11:29:01.453Z,20.81
2022-08-17T11:31:39.901Z,20.92
2022-08-17T11:34:14.473Z,20.83
2022-08-17T11:37:26.903Z,20.65
2022-08-17T11:40:56.335Z,20.58
2022-08-17T11:43:45.717Z,20.48
2022-08-17T11:47:01.290Z,20.48
2022-08-17T11:50:15.489Z,20.35
2022-08-17T11:52:49.782Z,20.32
2022-08-17T11:55:44.413Z,20.29
2022-08-17T11:58:45.821Z,20.22
2022-08-17T12:01:26.781Z,20.08
2022-08-17T12:04:25.684Z,20.05
2022-08-17T12:07:18.396Z,20.08
2022-08-17T12:09:50.209Z,19.98
2022-08-17T12:12:29.594Z,20.14
2022-08-17T12:15:10.210Z,20.02
2022-08-17T12:17:41.586Z,19.91
2022-08-17T12:20:18.463Z,19.93
2022-08-17T12:23:04.236Z,19.95
2022-08-17T12:25:59.808Z,20.01
2022-08-17T12:28:30.646Z,20.05
2022-08-17T12:31:15.498Z,20.08
2022-08-17T12:33:45.922Z,20.12
2022-08-17T12:36:21.227Z,20.08
2022-08-17T12:39:13.290Z,20.11
2022-08-17T12:41:48.216Z,20.09
2022-08-17T12:44:24.780Z,20.12
2022-08-17T12:47:21.797Z,20.05
2022-08-17T12:49:53.360Z,19.98
2022-08-17T12:52:25.055Z,20.08
2022-08-17T12:54:59.456Z,20.04
2022-08-17T12:57:38.666Z,20.09
2022-08-17T13:00:47.272Z,20.11
2022-08-17T13:03:24.624Z,20.12
2022-08-17T13:06:06.073Z,20.16
2022-08-17T13:08:46.122Z,20.20
2022-08-17T13:11:18.850Z,20.26
2022-08-17T13:13:51.368Z,20.15
2022-08-17T13:16:26.633Z,20.26
2022-08-17T13:19:15.407Z,20.32
2022-08-17T13:21:56.182Z,20.26
2022-08-17T13:24:38.073Z,20.32
2022-08-17T13:27:10.274Z,20.34
2022-08-17T13:29:53.378Z,20.30
2022-08-17T13:32:43.642Z,20.30
2022-08-17T13:35:49.318Z,20.38
2022-08-17T13:38:47.028Z,20.41
2022-08-17T13:41:37.608Z,20.38
2022-08-17T13:44:30.220Z,20.48
2022-08-17T13:46:59.464Z,20.49
2022-08-17T13:49:48.050Z,20.51
2022-08-17T13:52:43.768Z,20.57
2022-08-17T13:55:22.135Z,20.56
2022-08-17T13:58:03.619Z,20.58
2022-08-17T14:00:36.667Z,20.60
2022-08-17T14:03:05.360Z,20.61
2022-08-17T14:05:33.756Z,20.66
2022-08-17T14:08:07.026Z,20.53
2022-08-17T14:10:36.278Z,20.64
2022-08-17T14:13:04.102Z,20.69
2022-08-17T14:15:54.966Z,20.68
2022-08-17T14:18:31.223Z,20.69
2022-08-17T14:21:08.229Z,20.69
2022-08-17T14:23:36.610Z,20.70
2022-08-17T14:26:04.002Z,20.74
2022-08-17T14:28:30.995Z,20.86
2022-08-17T14:31:00.266Z,20.94
2022-08-17T14:33:28.750Z,20.90
2022-08-17T14:35:57.364Z,20.88
2022-08-17T14:38:24.773Z,20.98
2022-08-17T14:40:52.065Z,21.00
2022-08-17T14:43:20.829Z,21.01
2022-08-17T14:45:47.872Z,20.97
2022-08-17T14:48:15.044Z,21.08
2022-08-17T14:50:44.189Z,21.04
2022-08-17T14:53:14.532Z,21.02
2022-08-17T14:55:41.835Z,21.10
2022-08-17T14:58:09.518Z,21.12
2022-08-17T15:00:37.433Z,21.05
2022-08-17T15:03:05.216Z,21.07
2022-08-17T15:05:36.518Z,21.12
2022-08-17T15:08:05.451Z,21.14
2022-08-17T15:10:33.261Z,21.06
2022-08-17T15:13:01.092Z,21.15
2022-08-17T15:15:29.074Z,21.11
2022-08-17T15:17:56.678Z,21.13
2022-08-17T15:20:28.386Z,21.10
2022-08-17T15:22:57.266Z,21.02
2022-08-17T15:25:28.810Z,20.95
2022-08-17T15:27:56.150Z,21.00
2022-08-17T15:30:24.526Z,21.00
2022-08-17T15:32:55.074Z,20.98
2022-08-17T15:35:28.213Z,20.98
2022-08-17T15:38:07.970Z,21.03
2022-08-17T15:40:41.289Z,21.03
2022-08-17T15:43:13.054Z,21.11
2022-08-17T15:45:41.099Z,21.08
2022-08-17T15:48:09.043Z,21.09
2022-08-17T15:50:36.742Z,21.26
2022-08-17T15:53:04.799Z,21.28
2022-08-17T15:55:34.128Z,21.27
2022-08-17T15:58:01.832Z,21.40
2022-08-17T16:00:29.364Z,21.46
2022-08-17T16:03:46.393Z,21.43
2022-08-17T16:05:50.041Z,21.36
2022-08-17T16:08:21.136Z,21.21
2022-08-17T16:10:50.180Z,21.24
2022-08-17T16:13:18.671Z,21.29
2022-08-17T16:15:56.213Z,21.31
2022-08-17T16:18:31.575Z,21.37
2022-08-17T16:21:21.374Z,21.31
2022-08-17T16:23:51.667Z,21.26
2022-08-17T16:26:19.405Z,21.18
2022-08-17T16:28:47.168Z,21.26
2022-08-17T16:31:14.646Z,21.26
2022-08-17T16:33:41.918Z,21.31
2022-08-17T16:36:09.238Z,21.32
2022-08-17T16:38:38.491Z,21.34
2022-08-17T16:41:06.623Z,21.29
2022-08-17T16:43:34.804Z,21.35
2022-08-17T16:46:02.595Z,21.38
2022-08-17T16:48:30.489Z,21.33
2022-08-17T16:51:04.433Z,21.33
2022-08-17T16:53:32.110Z,21.32
2022-08-17T16:55:59.067Z,21.32
2022-08-17T16:58:26.129Z,21.33
2022-08-17T17:00:54.312Z,21.29
2022-08-17T17:03:25.369Z,21.25
2022-08-17T17:06:18.770Z,21.23
2022-08-17T17:08:56.067Z,21.25
2022-08-17T17:11:40.773Z,21.25
2022-08-17T17:14:18.162Z,21.23
2022-08-17T17:16:52.244Z,21.25
2022-08-17T17:19:38.554Z,21.21
2022-08-17T17:22:34.467Z,21.18
2022-08-17T17:25:24.556Z,21.18
2022-08-17T17:28:06.566Z,21.19
2022-08-17T17:31:09.280Z,21.18
2022-08-17T17:33:48.740Z,21.15
2022-08-17T17:36:39.865Z,21.13
2022-08-17T17:39:20.825Z,21.12
2022-08-17T17:41:53.303Z,21.08
2022-08-17T17:44:37.430Z,21.08
2022-08-17T17:47:05.737Z,21.10
2022-08-17T17:49:44.042Z,21.05
2022-08-17T17:52:26.852Z,21.09
2022-08-17T17:55:17.936Z,21.08
2022-08-17T17:58:03.505Z,21.07
2022-08-17T18:00:50.593Z,21.01
2022-08-17T18:03:54.674Z,21.02
2022-08-17T18:06:33.549Z,20.97
2022-08-17T18:09:28.836Z,20.98
2022-08-17T18:12:26.437Z,20.97
2022-08-17T18:15:08.178Z,20.93
2022-08-17T18:17:36.186Z,20.92
2022-08-17T18:20:06.933Z,20.84
2022-08-17T18:22:34.093Z,20.80
2022-08-17T18:25:01.039Z,20.78
2022-08-17T18:27:34.800Z,20.76
2022-08-17T18:30:24.735Z,20.77
2022-08-17T18:32:51.909Z,20.76
2022-08-17T18:35:18.806Z,20.72
2022-08-17T18:38:33.587Z,20.70
2022-08-17T18:41:25.274Z,20.65
2022-08-17T18:44:06.413Z,20.49
2022-08-17T18:46:37.817Z,20.56
2022-08-17T18:49:27.041Z,20.45
2022-08-17T18:52:27.731Z,20.43
2022-08-17T18:55:24.377Z,20.43
2022-08-17T18:57:59.761Z,20.38
2022-08-17T19:00:40.701Z,20.40
2022-08-17T19:03:19.368Z,20.42
2022-08-17T19:05:53.767Z,20.35
2022-08-17T19:08:29.401Z,20.33
2022-08-17T19:11:05.660Z,20.24
2022-08-17T19:13:53.547Z,20.21
2022-08-17T19:17:07.809Z,20.17
2022-08-17T19:19:53.972Z,20.15
2022-08-17T19:22:42.167Z,20.15
2022-08-17T19:25:19.586Z,20.09
2022-08-17T19:28:21.613Z,20.08
2022-08-17T19:30:57.882Z,20.03
2022-08-17T19:33:25.523Z,20.01
2022-08-17T19:36:10.353Z,20.00
2022-08-17T19:38:50.745Z,20.02
2022-08-17T19:41:48.297Z,19.98
2022-08-17T19:45:02.940Z,19.96
2022-08-17T19:47:55.907Z,19.91
2022-08-17T19:50:56.909Z,19.94
2022-08-17T19:54:05.040Z,19.95
2022-08-17T19:57:11.292Z,19.91
2022-08-17T20:00:18.977Z,19.87
2022-08-17T20:02:58.853Z,19.89
2022-08-17T20:06:01.019Z,19.88
2022-08-17T20:08:31.562Z,19.91
2022-08-17T20:11:21.945Z,19.79
2022-08-17T20:14:14.585Z,19.84
2022-08-17T20:16:41.910Z,19.82
2022-08-17T20:19:24.953Z,19.78
2022-08-17T20:22:08.028Z,19.75
2022-08-17T20:24:53.250Z,19.75
2022-08-17T20:27:31.974Z,19.77
2022-08-17T20:30:10.216Z,19.73
2022-08-17T20:32:55.163Z,19.68
2022-08-17T20:35:30.179Z,19.61
2022-08-17T20:38:05.601Z,19.65
2022-08-17T20:40:54.920Z,19.60
2022-08-17T20:43:38.270Z,19.55
2022-08-17T20:46:36.029Z,19.52
2022-08-17T20:49:08.817Z,19.47
2022-08-17T20:52:13.323Z,19.42
2022-08-17T20:54:57.199Z,19.41
2022-08-17T20:57:33.033Z,19.41
2022-08-17T21:00:15.547Z,19.32
2022-08-17T21:02:50.049Z,19.34
2022-08-17T21:05:32.371Z,19.29
2022-08-17T21:08:16.568Z,19.19
2022-08-17T21:10:46.970Z,19.24
2022-08-17T21:13:15.438Z,19.18
2022-08-17T21:15:42.613Z,19.18
2022-08-17T21:18:26.075Z,19.09
2022-08-17T21:21:17.884Z,19.08
2022-08-17T21:24:19.239Z,19.05
2022-08-17T21:27:05.220Z,19.04
2022-08-17T21:29:33.929Z,19.03
2022-08-17T21:32:09.502Z,18.96
2022-08-17T21:35:23.123Z,18.96
2022-08-17T21:38:02.325Z,18.94
2022-08-17T21:40:33.321Z,18.90
2022-08-17T21:43:28.139Z,18.91
2022-08-17T21:46:11.101Z,18.84
2022-08-17T21:48:48.237Z,18.87
2022-08-17T21:51:23.785Z,18.79
2022-08-17T21:53:56.514Z,18.79
2022-08-17T21:56:29.720Z,18.78
2022-08-17T21:59:05.070Z,18.75
2022-08-17T22:01:39.564Z,18.73
2022-08-17T22:04:19.801Z,18.72
2022-08-17T22:06:56.805Z,18.70
2022-08-17T22:09:49.032Z,18.69
2022-08-17T22:12:24.363Z,18.72
2022-08-17T22:15:00.379Z,18.70
2022-08-17T22:17:35.864Z,18.67
2022-08-17T22:20:17.652Z,18.61
2022-08-17T22:23:12.392Z,18.60
2022-08-17T22:26:00.596Z,18.61
2022-08-17T22:28:52.679Z,18.59
2022-08-17T22:31:24.522Z,18.58
2022-08-17T22:34:14.364Z,18.49
2022-08-17T22:36:42.451Z,18.52
2022-08-17T22:39:09.290Z,18.49
2022-08-17T22:41:56.988Z,18.44
2022-08-17T22:44:44.566Z,18.41
2022-08-17T22:47:14.177Z,18.37
2022-08-17T22:49:59.395Z,18.36
2022-08-17T22:53:02.471Z,18.33
2022-08-17T22:55:51.036Z,18.26
2022-08-17T22:58:42.379Z,18.23
2022-08-17T23:01:32.239Z,18.20
2022-08-17T23:04:31.384Z,18.16
2022-08-17T23:06:58.644Z,18.11
2022-08-17T23:09:25.540Z,18.11
2022-08-17T23:11:58.426Z,17.99
2022-08-17T23:14:31.315Z,17.99
2022-08-17T23:16:59.422Z,17.94
2022-08-17T23:19:28.367Z,17.85
2022-08-17T23:21:57.267Z,17.87
2022-08-17T23:24:31.388Z,17.84
2022-08-17T23:26:58.920Z,17.78
2022-08-17T23:29:29.185Z,17.74
2022-08-17T23:31:59.529Z,17.76
2022-08-17T23:34:27.968Z,17.70
2022-08-17T23:36:55.722Z,17.72
2022-08-17T23:39:27.591Z,17.72
2022-08-17T23:41:58.168Z,17.69
2022-08-17T23:44:26.891Z,17.70
2022-08-17T23:46:54.505Z,17.65
2022-08-17T23:49:21.501Z,17.66
2022-08-17T23:51:49.668Z,17.57
2022-08-17T23:54:37.377Z,17.61
2022-08-17T23:57:05.089Z,17.59
2022-08-17T23:59:33.752Z,17.55
